Airfield :
LOGIN :

Register | Disclaimer

   EN    FR    IT 

 










Legend :    VFR   Marginal VFR   IFR   Intensive IFR   Very Intensive IFR
Visi :
Ceiling :
>= 8 km
>= 3000ft
5 to 8 km
1000 to 3000 ft
1500m to 5 km
500 to 1000 ft
800 to 1500m
200 to 500 ft
< 800m
< 200 ft
Symbols :   Thunderstorms  Fog  Heavy snow  Heavy precipitations  Wind > 20 kt
SIGMETs :     Misc.  Thunderstorms  Icing  Turbulence  Mountain Waves  Volcanic Ashes






- Airport Elevation : 17 ft
- IATA code : CPH


EKCH - København - Kastrup (Copenhagen)

CURRENT METAR :
  • 212120Z 11013KT 9999 BKN009 09/07 Q1012 NOSIG

EXPIRED METARs :
  • 212050Z 11012KT 9999 BKN009 09/08 Q1012 NOSIG
  • 212020Z 10012KT 9999 BKN007 09/08 Q1013 TEMPO 4000 BR BKN010
  • 211950Z 11013KT 9999 BKN007 09/08 Q1013 TEMPO 4000 BR BKN010
  • 211920Z 10009KT 8000 -DZ BKN005 09/08 Q1013 TEMPO 4000 BR BKN010
  • 211850Z 09009KT 4000 -DZ BR FEW003 OVC005 09/08 Q1013 TEMPO 6000 BKN010

TAF TAF EKCH
Valid from the 21 at 18:00 until the 22 at 18:00 UTC


211701Z 2118/2218 10012KT 6000 BKN012
TEMPO 2118/2218 3000 -RADZ BR BKN005



MET'MAP, your aeronautical weather chart ! - Copyright ORBIFLY December 2007 - Disclaimer

ORBIFLY MET'MAP TEAM :

Programming & Development : Alexandra Zaïnal
Concept & Development : Baudouin d'Aumeries
Co-Development & Prog : Marc-Olivier Méhu
Technical & hardware support : Manuel Goepfert

Contact : metmap@orbifly.com




SOURCES & CREDITS :

   NOAA